sensor_id;sensor_type;location;lat;lon;timestamp;P1;durP1;ratioP1;P2;durP2;ratioP2
68653;SDS011;55636;51.108;13.622;2024-01-16T00:00:58;2.10;;;1.40;;
68653;SDS011;55636;51.108;13.622;2024-01-16T00:02:00;2.73;;;1.50;;
68653;SDS011;55636;51.108;13.622;2024-01-16T00:03:03;2.93;;;1.50;;
68653;SDS011;55636;51.108;13.622;2024-01-16T00:04:06;2.27;;;1.50;;
68653;SDS011;55636;51.108;13.622;2024-01-16T00:05:10;2.97;;;1.47;;
68653;SDS011;55636;51.108;13.622;2024-01-16T00:06:12;2.83;;;1.50;;
68653;SDS011;55636;51.108;13.622;2024-01-16T00:07:15;2.63;;;1.30;;
68653;SDS011;55636;51.108;13.622;2024-01-16T00:08:17;2.03;;;1.17;;
68653;SDS011;55636;51.108;13.622;2024-01-16T00:09:20;3.73;;;1.50;;
68653;SDS011;55636;51.108;13.622;2024-01-16T00:10:22;3.17;;;1.47;;
68653;SDS011;55636;51.108;13.622;2024-01-16T00:11:25;1.77;;;1.30;;
68653;SDS011;55636;51.108;13.622;2024-01-16T00:12:27;2.37;;;1.30;;
68653;SDS011;55636;51.108;13.622;2024-01-16T00:13:29;3.97;;;1.20;;
68653;SDS011;55636;51.108;13.622;2024-01-16T00:14:35;2.87;;;1.30;;
68653;SDS011;55636;51.108;13.622;2024-01-16T00:15:39;2.70;;;1.30;;
68653;SDS011;55636;51.108;13.622;2024-01-16T00:16:44;2.80;;;1.33;;
68653;SDS011;55636;51.108;13.622;2024-01-16T00:17:47;2.13;;;1.33;;
68653;SDS011;55636;51.108;13.622;2024-01-16T00:18:50;3.17;;;1.30;;
68653;SDS011;55636;51.108;13.622;2024-01-16T00:19:53;2.23;;;1.30;;
68653;SDS011;55636;51.108;13.622;2024-01-16T00:20:55;3.10;;;1.60;;
68653;SDS011;55636;51.108;13.622;2024-01-16T00:21:57;1.90;;;1.30;;
68653;SDS011;55636;51.108;13.622;2024-01-16T00:23:00;2.90;;;1.40;;
68653;SDS011;55636;51.108;13.622;2024-01-16T00:24:03;3.73;;;1.40;;
68653;SDS011;55636;51.108;13.622;2024-01-16T00:25:06;2.97;;;1.20;;
68653;SDS011;55636;51.108;13.622;2024-01-16T00:26:18;2.43;;;1.70;;
68653;SDS011;55636;51.108;13.622;2024-01-16T00:27:21;2.73;;;1.30;;
68653;SDS011;55636;51.108;13.622;2024-01-16T00:28:24;2.00;;;1.33;;
68653;SDS011;55636;51.108;13.622;2024-01-16T00:29:26;2.67;;;1.20;;
68653;SDS011;55636;51.108;13.622;2024-01-16T00:30:29;2.20;;;1.37;;
68653;SDS011;55636;51.108;13.622;2024-01-16T00:31:31;2.80;;;1.50;;
68653;SDS011;55636;51.108;13.622;2024-01-16T00:32:34;2.40;;;1.50;;
68653;SDS011;55636;51.108;13.622;2024-01-16T00:33:36;2.47;;;1.30;;
68653;SDS011;55636;51.108;13.622;2024-01-16T00:34:39;3.23;;;1.43;;
68653;SDS011;55636;51.108;13.622;2024-01-16T00:35:43;4.37;;;1.53;;
68653;SDS011;55636;51.108;13.622;2024-01-16T00:36:46;2.83;;;1.43;;
68653;SDS011;55636;51.108;13.622;2024-01-16T00:37:48;2.07;;;1.47;;
68653;SDS011;55636;51.108;13.622;2024-01-16T00:38:50;2.50;;;1.50;;
68653;SDS011;55636;51.108;13.622;2024-01-16T00:39:52;2.87;;;1.60;;
68653;SDS011;55636;51.108;13.622;2024-01-16T00:40:55;3.10;;;1.50;;
68653;SDS011;55636;51.108;13.622;2024-01-16T00:41:57;2.20;;;1.40;;
68653;SDS011;55636;51.108;13.622;2024-01-16T00:42:59;2.30;;;1.57;;
68653;SDS011;55636;51.108;13.622;2024-01-16T00:44:02;2.73;;;1.40;;
68653;SDS011;55636;51.108;13.622;2024-01-16T00:45:05;3.33;;;1.67;;
68653;SDS011;55636;51.108;13.622;2024-01-16T00:46:07;2.57;;;1.40;;
68653;SDS011;55636;51.108;13.622;2024-01-16T00:47:10;2.00;;;1.50;;
68653;SDS011;55636;51.108;13.622;2024-01-16T00:48:12;4.17;;;1.87;;
68653;SDS011;55636;51.108;13.622;2024-01-16T00:49:16;1.57;;;1.40;;
68653;SDS011;55636;51.108;13.622;2024-01-16T00:50:22;2.43;;;1.50;;
68653;SDS011;55636;51.108;13.622;2024-01-16T00:51:26;2.63;;;1.80;;
68653;SDS011;55636;51.108;13.622;2024-01-16T00:52:29;3.17;;;1.77;;
68653;SDS011;55636;51.108;13.622;2024-01-16T00:53:31;3.20;;;1.70;;
68653;SDS011;55636;51.108;13.622;2024-01-16T00:54:33;2.13;;;1.60;;
68653;SDS011;55636;51.108;13.622;2024-01-16T00:55:36;3.27;;;1.80;;
68653;SDS011;55636;51.108;13.622;2024-01-16T00:56:38;2.80;;;1.70;;
68653;SDS011;55636;51.108;13.622;2024-01-16T00:57:40;3.37;;;1.80;;
68653;SDS011;55636;51.108;13.622;2024-01-16T00:58:43;2.23;;;1.50;;
68653;SDS011;55636;51.108;13.622;2024-01-16T00:59:45;2.03;;;1.47;;
68653;SDS011;55636;51.108;13.622;2024-01-16T01:00:48;3.37;;;1.90;;
68653;SDS011;55636;51.108;13.622;2024-01-16T01:01:51;2.27;;;1.60;;
68653;SDS011;55636;51.108;13.622;2024-01-16T01:02:53;2.47;;;1.80;;
68653;SDS011;55636;51.108;13.622;2024-01-16T01:03:56;2.77;;;1.70;;
68653;SDS011;55636;51.108;13.622;2024-01-16T01:04:58;3.50;;;1.90;;
68653;SDS011;55636;51.108;13.622;2024-01-16T01:06:01;2.27;;;1.60;;
68653;SDS011;55636;51.108;13.622;2024-01-16T01:07:04;2.83;;;1.70;;
68653;SDS011;55636;51.108;13.622;2024-01-16T01:08:06;3.03;;;1.70;;
68653;SDS011;55636;51.108;13.622;2024-01-16T01:09:09;3.47;;;1.60;;
68653;SDS011;55636;51.108;13.622;2024-01-16T01:10:13;3.10;;;1.60;;
68653;SDS011;55636;51.108;13.622;2024-01-16T01:11:16;2.17;;;1.50;;
68653;SDS011;55636;51.108;13.622;2024-01-16T01:12:19;2.83;;;1.70;;
68653;SDS011;55636;51.108;13.622;2024-01-16T01:13:21;1.93;;;1.60;;
68653;SDS011;55636;51.108;13.622;2024-01-16T01:14:24;2.00;;;1.63;;
68653;SDS011;55636;51.108;13.622;2024-01-16T01:15:28;2.53;;;1.70;;
68653;SDS011;55636;51.108;13.622;2024-01-16T01:16:30;3.70;;;1.70;;
68653;SDS011;55636;51.108;13.622;2024-01-16T01:17:33;3.43;;;1.70;;
68653;SDS011;55636;51.108;13.622;2024-01-16T01:18:35;3.40;;;2.07;;
68653;SDS011;55636;51.108;13.622;2024-01-16T01:19:38;2.90;;;1.63;;
68653;SDS011;55636;51.108;13.622;2024-01-16T01:20:41;3.33;;;1.63;;
68653;SDS011;55636;51.108;13.622;2024-01-16T01:21:43;2.60;;;1.70;;
68653;SDS011;55636;51.108;13.622;2024-01-16T01:22:46;2.00;;;1.60;;
68653;SDS011;55636;51.108;13.622;2024-01-16T01:23:48;3.00;;;1.80;;
68653;SDS011;55636;51.108;13.622;2024-01-16T01:24:51;2.77;;;1.70;;
68653;SDS011;55636;51.108;13.622;2024-01-16T01:25:53;3.17;;;1.60;;
68653;SDS011;55636;51.108;13.622;2024-01-16T01:26:55;4.27;;;2.07;;
68653;SDS011;55636;51.108;13.622;2024-01-16T01:27:58;3.00;;;1.73;;
68653;SDS011;55636;51.108;13.622;2024-01-16T01:29:00;1.77;;;1.50;;
68653;SDS011;55636;51.108;13.622;2024-01-16T01:30:03;3.60;;;1.77;;
68653;SDS011;55636;51.108;13.622;2024-01-16T01:31:08;2.43;;;1.80;;
68653;SDS011;55636;51.108;13.622;2024-01-16T01:32:11;3.50;;;1.80;;
68653;SDS011;55636;51.108;13.622;2024-01-16T01:33:14;3.00;;;1.90;;
68653;SDS011;55636;51.108;13.622;2024-01-16T01:34:16;2.87;;;1.80;;
68653;SDS011;55636;51.108;13.622;2024-01-16T01:35:19;2.97;;;1.70;;
68653;SDS011;55636;51.108;13.622;2024-01-16T01:36:22;4.07;;;1.80;;
68653;SDS011;55636;51.108;13.622;2024-01-16T01:37:24;3.23;;;1.63;;
68653;SDS011;55636;51.108;13.622;2024-01-16T01:38:26;3.90;;;2.00;;
68653;SDS011;55636;51.108;13.622;2024-01-16T01:39:29;2.77;;;1.80;;
68653;SDS011;55636;51.108;13.622;2024-01-16T01:40:32;2.87;;;1.70;;
68653;SDS011;55636;51.108;13.622;2024-01-16T01:41:34;3.30;;;1.57;;
68653;SDS011;55636;51.108;13.622;2024-01-16T01:42:37;2.73;;;1.60;;
68653;SDS011;55636;51.108;13.622;2024-01-16T01:43:39;3.87;;;1.80;;
68653;SDS011;55636;51.108;13.622;2024-01-16T01:44:41;3.20;;;1.90;;
68653;SDS011;55636;51.108;13.622;2024-01-16T01:45:44;3.50;;;1.90;;
68653;SDS011;55636;51.108;13.622;2024-01-16T01:46:47;3.20;;;1.80;;
68653;SDS011;55636;51.108;13.622;2024-01-16T01:47:49;2.50;;;1.63;;
68653;SDS011;55636;51.108;13.622;2024-01-16T01:48:52;3.53;;;1.80;;
68653;SDS011;55636;51.108;13.622;2024-01-16T01:49:55;3.93;;;1.80;;
68653;SDS011;55636;51.108;13.622;2024-01-16T01:50:58;3.13;;;1.70;;
68653;SDS011;55636;51.108;13.622;2024-01-16T01:52:01;2.27;;;1.70;;
68653;SDS011;55636;51.108;13.622;2024-01-16T01:53:05;1.73;;;1.60;;
68653;SDS011;55636;51.108;13.622;2024-01-16T01:54:08;2.90;;;1.67;;
68653;SDS011;55636;51.108;13.622;2024-01-16T01:55:13;2.07;;;1.70;;
68653;SDS011;55636;51.108;13.622;2024-01-16T01:56:17;3.13;;;1.80;;
68653;SDS011;55636;51.108;13.622;2024-01-16T01:57:21;1.93;;;1.50;;
68653;SDS011;55636;51.108;13.622;2024-01-16T01:58:23;2.73;;;1.70;;
68653;SDS011;55636;51.108;13.622;2024-01-16T01:59:26;1.87;;;1.50;;
68653;SDS011;55636;51.108;13.622;2024-01-16T02:00:29;1.97;;;1.63;;
68653;SDS011;55636;51.108;13.622;2024-01-16T02:01:31;2.13;;;1.50;;
68653;SDS011;55636;51.108;13.622;2024-01-16T02:02:34;2.63;;;1.60;;
68653;SDS011;55636;51.108;13.622;2024-01-16T02:03:39;2.57;;;1.77;;
68653;SDS011;55636;51.108;13.622;2024-01-16T02:04:44;3.43;;;1.67;;
68653;SDS011;55636;51.108;13.622;2024-01-16T02:05:49;2.10;;;1.60;;
68653;SDS011;55636;51.108;13.622;2024-01-16T02:06:52;2.23;;;1.50;;
68653;SDS011;55636;51.108;13.622;2024-01-16T02:07:55;3.13;;;1.70;;
68653;SDS011;55636;51.108;13.622;2024-01-16T02:08:58;2.67;;;1.77;;
68653;SDS011;55636;51.108;13.622;2024-01-16T02:10:01;2.73;;;1.50;;
68653;SDS011;55636;51.108;13.622;2024-01-16T02:12:26;2.37;;;1.40;;
68653;SDS011;55636;51.108;13.622;2024-01-16T02:13:28;3.30;;;1.63;;
68653;SDS011;55636;51.108;13.622;2024-01-16T02:14:31;3.13;;;1.67;;
68653;SDS011;55636;51.108;13.622;2024-01-16T02:15:33;2.40;;;1.60;;
68653;SDS011;55636;51.108;13.622;2024-01-16T02:16:40;3.47;;;1.80;;
68653;SDS011;55636;51.108;13.622;2024-01-16T02:17:43;2.73;;;1.70;;
68653;SDS011;55636;51.108;13.622;2024-01-16T02:18:46;2.37;;;1.80;;
68653;SDS011;55636;51.108;13.622;2024-01-16T02:19:48;2.40;;;1.60;;
68653;SDS011;55636;51.108;13.622;2024-01-16T02:20:50;2.33;;;1.73;;
68653;SDS011;55636;51.108;13.622;2024-01-16T02:21:54;3.00;;;1.60;;
68653;SDS011;55636;51.108;13.622;2024-01-16T02:23:03;3.00;;;1.50;;
68653;SDS011;55636;51.108;13.622;2024-01-16T02:24:06;3.10;;;1.80;;
68653;SDS011;55636;51.108;13.622;2024-01-16T02:25:10;2.53;;;1.50;;
68653;SDS011;55636;51.108;13.622;2024-01-16T02:26:13;3.87;;;1.83;;
68653;SDS011;55636;51.108;13.622;2024-01-16T02:27:17;3.00;;;1.57;;
68653;SDS011;55636;51.108;13.622;2024-01-16T02:28:19;2.23;;;1.47;;
68653;SDS011;55636;51.108;13.622;2024-01-16T02:29:21;3.20;;;1.57;;
68653;SDS011;55636;51.108;13.622;2024-01-16T02:30:24;2.10;;;1.60;;
68653;SDS011;55636;51.108;13.622;2024-01-16T02:31:26;3.83;;;1.63;;
68653;SDS011;55636;51.108;13.622;2024-01-16T02:32:28;2.87;;;1.53;;
68653;SDS011;55636;51.108;13.622;2024-01-16T02:33:31;3.73;;;1.60;;
68653;SDS011;55636;51.108;13.622;2024-01-16T02:34:33;2.00;;;1.50;;
68653;SDS011;55636;51.108;13.622;2024-01-16T02:35:36;2.37;;;1.40;;
68653;SDS011;55636;51.108;13.622;2024-01-16T02:36:38;2.00;;;1.47;;
68653;SDS011;55636;51.108;13.622;2024-01-16T02:37:40;3.03;;;1.67;;
68653;SDS011;55636;51.108;13.622;2024-01-16T02:38:43;2.40;;;1.60;;
68653;SDS011;55636;51.108;13.622;2024-01-16T02:39:47;2.93;;;1.60;;
68653;SDS011;55636;51.108;13.622;2024-01-16T02:40:50;1.90;;;1.40;;
68653;SDS011;55636;51.108;13.622;2024-01-16T02:41:53;3.27;;;1.70;;
68653;SDS011;55636;51.108;13.622;2024-01-16T02:42:55;2.77;;;1.40;;
68653;SDS011;55636;51.108;13.622;2024-01-16T02:43:58;2.43;;;1.50;;
68653;SDS011;55636;51.108;13.622;2024-01-16T02:45:00;2.33;;;1.50;;
68653;SDS011;55636;51.108;13.622;2024-01-16T02:46:02;2.70;;;1.60;;
68653;SDS011;55636;51.108;13.622;2024-01-16T02:47:04;2.33;;;1.47;;
68653;SDS011;55636;51.108;13.622;2024-01-16T02:48:09;2.20;;;1.43;;
68653;SDS011;55636;51.108;13.622;2024-01-16T02:49:11;3.57;;;1.50;;
68653;SDS011;55636;51.108;13.622;2024-01-16T02:50:14;2.83;;;1.47;;
68653;SDS011;55636;51.108;13.622;2024-01-16T02:51:16;2.60;;;1.63;;
68653;SDS011;55636;51.108;13.622;2024-01-16T02:52:19;2.20;;;1.70;;
68653;SDS011;55636;51.108;13.622;2024-01-16T02:53:21;2.87;;;1.50;;
68653;SDS011;55636;51.108;13.622;2024-01-16T02:54:24;2.50;;;1.60;;
68653;SDS011;55636;51.108;13.622;2024-01-16T02:55:26;2.40;;;1.50;;
68653;SDS011;55636;51.108;13.622;2024-01-16T02:56:28;3.70;;;1.50;;
68653;SDS011;55636;51.108;13.622;2024-01-16T02:57:31;2.23;;;1.53;;
68653;SDS011;55636;51.108;13.622;2024-01-16T02:58:33;2.43;;;1.30;;
68653;SDS011;55636;51.108;13.622;2024-01-16T02:59:36;2.63;;;1.33;;
68653;SDS011;55636;51.108;13.622;2024-01-16T03:00:38;2.57;;;1.30;;
68653;SDS011;55636;51.108;13.622;2024-01-16T03:01:41;2.23;;;1.50;;
68653;SDS011;55636;51.108;13.622;2024-01-16T03:02:43;2.20;;;1.40;;
68653;SDS011;55636;51.108;13.622;2024-01-16T03:03:46;2.40;;;1.60;;
68653;SDS011;55636;51.108;13.622;2024-01-16T03:04:49;1.60;;;1.33;;
68653;SDS011;55636;51.108;13.622;2024-01-16T03:05:52;2.10;;;1.33;;
68653;SDS011;55636;51.108;13.622;2024-01-16T03:06:54;2.53;;;1.50;;
68653;SDS011;55636;51.108;13.622;2024-01-16T03:07:57;1.60;;;1.30;;
68653;SDS011;55636;51.108;13.622;2024-01-16T03:08:59;3.00;;;1.50;;
68653;SDS011;55636;51.108;13.622;2024-01-16T03:10:02;2.00;;;1.10;;
68653;SDS011;55636;51.108;13.622;2024-01-16T03:11:05;2.87;;;1.60;;
68653;SDS011;55636;51.108;13.622;2024-01-16T03:12:07;2.10;;;1.50;;
68653;SDS011;55636;51.108;13.622;2024-01-16T03:13:10;1.30;;;1.20;;
68653;SDS011;55636;51.108;13.622;2024-01-16T03:14:12;2.53;;;1.40;;
68653;SDS011;55636;51.108;13.622;2024-01-16T03:15:15;2.53;;;1.30;;
68653;SDS011;55636;51.108;13.622;2024-01-16T03:16:18;2.03;;;1.20;;
68653;SDS011;55636;51.108;13.622;2024-01-16T03:17:20;2.33;;;1.40;;
68653;SDS011;55636;51.108;13.622;2024-01-16T03:18:23;2.70;;;1.43;;
68653;SDS011;55636;51.108;13.622;2024-01-16T03:19:26;1.73;;;1.20;;
68653;SDS011;55636;51.108;13.622;2024-01-16T03:20:28;1.40;;;1.30;;
68653;SDS011;55636;51.108;13.622;2024-01-16T03:21:31;1.77;;;1.20;;
68653;SDS011;55636;51.108;13.622;2024-01-16T03:22:34;1.70;;;1.40;;
68653;SDS011;55636;51.108;13.622;2024-01-16T03:23:36;2.67;;;1.33;;
68653;SDS011;55636;51.108;13.622;2024-01-16T03:24:53;2.50;;;1.40;;
68653;SDS011;55636;51.108;13.622;2024-01-16T03:25:56;4.60;;;1.40;;
68653;SDS011;55636;51.108;13.622;2024-01-16T03:26:59;2.30;;;1.23;;
68653;SDS011;55636;51.108;13.622;2024-01-16T03:28:02;3.03;;;1.30;;
68653;SDS011;55636;51.108;13.622;2024-01-16T03:29:04;1.97;;;1.30;;
68653;SDS011;55636;51.108;13.622;2024-01-16T03:30:07;2.43;;;1.37;;
68653;SDS011;55636;51.108;13.622;2024-01-16T03:31:12;1.53;;;1.20;;
68653;SDS011;55636;51.108;13.622;2024-01-16T03:32:16;2.70;;;1.23;;
68653;SDS011;55636;51.108;13.622;2024-01-16T03:33:18;1.63;;;1.20;;
68653;SDS011;55636;51.108;13.622;2024-01-16T03:34:23;1.90;;;1.23;;
68653;SDS011;55636;51.108;13.622;2024-01-16T03:35:25;3.10;;;1.20;;
68653;SDS011;55636;51.108;13.622;2024-01-16T03:36:27;1.83;;;1.20;;
68653;SDS011;55636;51.108;13.622;2024-01-16T03:37:30;1.67;;;1.37;;
68653;SDS011;55636;51.108;13.622;2024-01-16T03:38:32;2.50;;;1.37;;
68653;SDS011;55636;51.108;13.622;2024-01-16T03:39:36;1.77;;;1.40;;
68653;SDS011;55636;51.108;13.622;2024-01-16T03:40:38;1.97;;;1.33;;
68653;SDS011;55636;51.108;13.622;2024-01-16T03:41:40;1.90;;;1.30;;
68653;SDS011;55636;51.108;13.622;2024-01-16T03:42:43;3.30;;;1.30;;
68653;SDS011;55636;51.108;13.622;2024-01-16T03:43:45;3.17;;;1.33;;
68653;SDS011;55636;51.108;13.622;2024-01-16T03:44:48;1.87;;;1.20;;
68653;SDS011;55636;51.108;13.622;2024-01-16T03:45:50;1.87;;;1.30;;
68653;SDS011;55636;51.108;13.622;2024-01-16T03:46:52;2.50;;;1.33;;
68653;SDS011;55636;51.108;13.622;2024-01-16T03:47:55;2.63;;;1.30;;
68653;SDS011;55636;51.108;13.622;2024-01-16T03:48:57;1.70;;;1.40;;
68653;SDS011;55636;51.108;13.622;2024-01-16T03:50:00;2.03;;;1.30;;
68653;SDS011;55636;51.108;13.622;2024-01-16T03:51:02;1.57;;;1.40;;
68653;SDS011;55636;51.108;13.622;2024-01-16T03:52:04;1.90;;;1.20;;
68653;SDS011;55636;51.108;13.622;2024-01-16T03:53:07;1.50;;;1.20;;
68653;SDS011;55636;51.108;13.622;2024-01-16T03:54:11;1.53;;;1.30;;
68653;SDS011;55636;51.108;13.622;2024-01-16T03:55:14;2.73;;;1.40;;
68653;SDS011;55636;51.108;13.622;2024-01-16T03:56:16;2.20;;;1.40;;
68653;SDS011;55636;51.108;13.622;2024-01-16T03:57:19;1.63;;;1.30;;
68653;SDS011;55636;51.108;13.622;2024-01-16T03:58:21;2.03;;;1.27;;
68653;SDS011;55636;51.108;13.622;2024-01-16T03:59:25;2.83;;;1.30;;
68653;SDS011;55636;51.108;13.622;2024-01-16T04:00:27;1.20;;;1.10;;
68653;SDS011;55636;51.108;13.622;2024-01-16T04:01:32;1.53;;;1.40;;
68653;SDS011;55636;51.108;13.622;2024-01-16T04:02:36;1.50;;;1.30;;
68653;SDS011;55636;51.108;13.622;2024-01-16T04:03:39;2.13;;;1.30;;
68653;SDS011;55636;51.108;13.622;2024-01-16T04:04:42;1.60;;;1.30;;
68653;SDS011;55636;51.108;13.622;2024-01-16T04:05:45;3.27;;;1.40;;
68653;SDS011;55636;51.108;13.622;2024-01-16T04:06:48;2.20;;;1.20;;
68653;SDS011;55636;51.108;13.622;2024-01-16T04:07:50;1.70;;;1.20;;
68653;SDS011;55636;51.108;13.622;2024-01-16T04:08:52;2.47;;;1.33;;
68653;SDS011;55636;51.108;13.622;2024-01-16T04:09:55;2.40;;;1.33;;
68653;SDS011;55636;51.108;13.622;2024-01-16T04:10:57;1.90;;;1.30;;
68653;SDS011;55636;51.108;13.622;2024-01-16T04:11:59;1.73;;;1.20;;
68653;SDS011;55636;51.108;13.622;2024-01-16T04:13:02;1.90;;;1.20;;
68653;SDS011;55636;51.108;13.622;2024-01-16T04:14:05;3.57;;;1.40;;
68653;SDS011;55636;51.108;13.622;2024-01-16T04:15:07;2.00;;;1.30;;
68653;SDS011;55636;51.108;13.622;2024-01-16T04:16:11;2.77;;;1.40;;
68653;SDS011;55636;51.108;13.622;2024-01-16T04:17:14;2.97;;;1.30;;
68653;SDS011;55636;51.108;13.622;2024-01-16T04:18:16;2.13;;;1.30;;
68653;SDS011;55636;51.108;13.622;2024-01-16T04:19:19;2.00;;;1.37;;
68653;SDS011;55636;51.108;13.622;2024-01-16T04:20:22;3.77;;;1.40;;
68653;SDS011;55636;51.108;13.622;2024-01-16T04:21:24;2.63;;;1.20;;
68653;SDS011;55636;51.108;13.622;2024-01-16T04:22:26;1.90;;;1.20;;
68653;SDS011;55636;51.108;13.622;2024-01-16T04:23:29;1.53;;;1.13;;
68653;SDS011;55636;51.108;13.622;2024-01-16T04:24:31;2.20;;;1.47;;
68653;SDS011;55636;51.108;13.622;2024-01-16T04:25:34;1.67;;;1.20;;
68653;SDS011;55636;51.108;13.622;2024-01-16T04:26:37;1.57;;;1.13;;
68653;SDS011;55636;51.108;13.622;2024-01-16T04:27:42;2.30;;;1.10;;
68653;SDS011;55636;51.108;13.622;2024-01-16T04:28:44;2.70;;;1.43;;
68653;SDS011;55636;51.108;13.622;2024-01-16T04:29:46;1.93;;;1.30;;
68653;SDS011;55636;51.108;13.622;2024-01-16T04:30:49;1.80;;;1.30;;
68653;SDS011;55636;51.108;13.622;2024-01-16T04:31:51;1.30;;;1.20;;
68653;SDS011;55636;51.108;13.622;2024-01-16T04:32:54;2.57;;;1.20;;
68653;SDS011;55636;51.108;13.622;2024-01-16T04:33:56;1.97;;;1.43;;
68653;SDS011;55636;51.108;13.622;2024-01-16T04:34:59;1.97;;;1.30;;
68653;SDS011;55636;51.108;13.622;2024-01-16T04:36:01;1.70;;;1.13;;
68653;SDS011;55636;51.108;13.622;2024-01-16T04:37:03;1.93;;;1.40;;
68653;SDS011;55636;51.108;13.622;2024-01-16T04:38:06;2.87;;;1.43;;
68653;SDS011;55636;51.108;13.622;2024-01-16T04:39:09;1.70;;;1.30;;
68653;SDS011;55636;51.108;13.622;2024-01-16T04:40:12;1.60;;;1.20;;
68653;SDS011;55636;51.108;13.622;2024-01-16T04:41:17;1.83;;;1.40;;
68653;SDS011;55636;51.108;13.622;2024-01-16T04:42:20;2.43;;;1.40;;
68653;SDS011;55636;51.108;13.622;2024-01-16T04:43:22;3.10;;;1.50;;
68653;SDS011;55636;51.108;13.622;2024-01-16T04:44:25;3.63;;;1.67;;
68653;SDS011;55636;51.108;13.622;2024-01-16T04:45:27;2.30;;;1.50;;
68653;SDS011;55636;51.108;13.622;2024-01-16T04:46:29;2.33;;;1.50;;
68653;SDS011;55636;51.108;13.622;2024-01-16T04:47:32;2.20;;;1.40;;
68653;SDS011;55636;51.108;13.622;2024-01-16T04:48:34;2.33;;;1.53;;
68653;SDS011;55636;51.108;13.622;2024-01-16T04:49:37;1.70;;;1.30;;
68653;SDS011;55636;51.108;13.622;2024-01-16T04:50:39;2.30;;;1.60;;
68653;SDS011;55636;51.108;13.622;2024-01-16T04:51:42;2.47;;;1.50;;
68653;SDS011;55636;51.108;13.622;2024-01-16T04:52:44;2.77;;;1.60;;
68653;SDS011;55636;51.108;13.622;2024-01-16T04:53:47;2.83;;;1.60;;
68653;SDS011;55636;51.108;13.622;2024-01-16T04:54:49;2.47;;;1.50;;
68653;SDS011;55636;51.108;13.622;2024-01-16T04:55:51;2.97;;;1.70;;
68653;SDS011;55636;51.108;13.622;2024-01-16T04:56:54;1.87;;;1.40;;
68653;SDS011;55636;51.108;13.622;2024-01-16T04:57:57;1.80;;;1.50;;
68653;SDS011;55636;51.108;13.622;2024-01-16T04:59:00;2.20;;;1.50;;
68653;SDS011;55636;51.108;13.622;2024-01-16T05:00:02;2.70;;;1.70;;
68653;SDS011;55636;51.108;13.622;2024-01-16T05:01:09;2.43;;;1.30;;
68653;SDS011;55636;51.108;13.622;2024-01-16T05:02:11;1.70;;;1.40;;
68653;SDS011;55636;51.108;13.622;2024-01-16T05:03:16;2.20;;;1.40;;
68653;SDS011;55636;51.108;13.622;2024-01-16T05:04:19;2.20;;;1.70;;
68653;SDS011;55636;51.108;13.622;2024-01-16T05:05:21;2.27;;;1.60;;
68653;SDS011;55636;51.108;13.622;2024-01-16T05:06:25;1.90;;;1.60;;
68653;SDS011;55636;51.108;13.622;2024-01-16T05:07:29;2.13;;;1.70;;
68653;SDS011;55636;51.108;13.622;2024-01-16T05:08:31;2.40;;;1.50;;
68653;SDS011;55636;51.108;13.622;2024-01-16T05:09:33;3.03;;;1.67;;
68653;SDS011;55636;51.108;13.622;2024-01-16T05:10:36;2.30;;;1.47;;
68653;SDS011;55636;51.108;13.622;2024-01-16T05:11:38;3.43;;;1.60;;
68653;SDS011;55636;51.108;13.622;2024-01-16T05:12:41;1.97;;;1.40;;
68653;SDS011;55636;51.108;13.622;2024-01-16T05:13:43;2.57;;;1.50;;
68653;SDS011;55636;51.108;13.622;2024-01-16T05:14:46;2.13;;;1.50;;
68653;SDS011;55636;51.108;13.622;2024-01-16T05:15:48;2.40;;;1.47;;
68653;SDS011;55636;51.108;13.622;2024-01-16T05:16:51;2.13;;;1.50;;
68653;SDS011;55636;51.108;13.622;2024-01-16T05:17:54;2.07;;;1.43;;
68653;SDS011;55636;51.108;13.622;2024-01-16T05:18:57;3.00;;;1.70;;
68653;SDS011;55636;51.108;13.622;2024-01-16T05:19:59;2.67;;;1.60;;
68653;SDS011;55636;51.108;13.622;2024-01-16T05:21:05;2.37;;;1.40;;
68653;SDS011;55636;51.108;13.622;2024-01-16T05:22:09;2.63;;;1.70;;
68653;SDS011;55636;51.108;13.622;2024-01-16T05:23:12;2.43;;;1.40;;
68653;SDS011;55636;51.108;13.622;2024-01-16T05:24:15;2.63;;;1.30;;
68653;SDS011;55636;51.108;13.622;2024-01-16T05:25:17;2.13;;;1.40;;
68653;SDS011;55636;51.108;13.622;2024-01-16T05:26:20;2.03;;;1.20;;
68653;SDS011;55636;51.108;13.622;2024-01-16T05:27:24;2.57;;;1.30;;
68653;SDS011;55636;51.108;13.622;2024-01-16T05:28:27;2.03;;;1.40;;
68653;SDS011;55636;51.108;13.622;2024-01-16T05:29:29;2.97;;;1.43;;
68653;SDS011;55636;51.108;13.622;2024-01-16T05:30:33;1.83;;;1.27;;
68653;SDS011;55636;51.108;13.622;2024-01-16T05:31:39;1.47;;;1.30;;
68653;SDS011;55636;51.108;13.622;2024-01-16T05:32:43;2.83;;;1.50;;
68653;SDS011;55636;51.108;13.622;2024-01-16T05:33:46;2.93;;;1.20;;
68653;SDS011;55636;51.108;13.622;2024-01-16T05:34:48;2.40;;;1.30;;
68653;SDS011;55636;51.108;13.622;2024-01-16T05:35:50;2.33;;;1.40;;
68653;SDS011;55636;51.108;13.622;2024-01-16T05:36:53;3.00;;;1.47;;
68653;SDS011;55636;51.108;13.622;2024-01-16T05:37:55;1.90;;;1.40;;
68653;SDS011;55636;51.108;13.622;2024-01-16T05:38:59;2.20;;;1.30;;
68653;SDS011;55636;51.108;13.622;2024-01-16T05:40:01;1.87;;;1.30;;
68653;SDS011;55636;51.108;13.622;2024-01-16T05:41:05;2.43;;;1.40;;
68653;SDS011;55636;51.108;13.622;2024-01-16T05:42:08;2.07;;;1.40;;
68653;SDS011;55636;51.108;13.622;2024-01-16T05:43:10;2.60;;;1.33;;
68653;SDS011;55636;51.108;13.622;2024-01-16T05:44:13;2.40;;;1.30;;
68653;SDS011;55636;51.108;13.622;2024-01-16T05:45:15;2.30;;;1.30;;
68653;SDS011;55636;51.108;13.622;2024-01-16T05:46:18;3.13;;;1.50;;
68653;SDS011;55636;51.108;13.622;2024-01-16T05:47:20;3.50;;;1.50;;
68653;SDS011;55636;51.108;13.622;2024-01-16T05:48:26;2.17;;;1.27;;
68653;SDS011;55636;51.108;13.622;2024-01-16T05:49:28;3.03;;;1.40;;
68653;SDS011;55636;51.108;13.622;2024-01-16T05:50:31;1.80;;;1.30;;
68653;SDS011;55636;51.108;13.622;2024-01-16T05:51:33;2.13;;;1.30;;
68653;SDS011;55636;51.108;13.622;2024-01-16T05:52:36;2.40;;;1.30;;
68653;SDS011;55636;51.108;13.622;2024-01-16T05:53:40;3.77;;;1.70;;
68653;SDS011;55636;51.108;13.622;2024-01-16T05:54:42;1.80;;;1.37;;
68653;SDS011;55636;51.108;13.622;2024-01-16T05:55:44;2.47;;;1.40;;
68653;SDS011;55636;51.108;13.622;2024-01-16T05:56:47;2.93;;;1.33;;
68653;SDS011;55636;51.108;13.622;2024-01-16T05:57:49;3.70;;;1.63;;
68653;SDS011;55636;51.108;13.622;2024-01-16T05:58:51;3.10;;;1.37;;
68653;SDS011;55636;51.108;13.622;2024-01-16T05:59:54;2.07;;;1.43;;
68653;SDS011;55636;51.108;13.622;2024-01-16T06:00:57;2.13;;;1.50;;
68653;SDS011;55636;51.108;13.622;2024-01-16T06:01:59;2.80;;;1.70;;
68653;SDS011;55636;51.108;13.622;2024-01-16T06:03:02;2.70;;;1.20;;
68653;SDS011;55636;51.108;13.622;2024-01-16T06:04:05;3.03;;;1.50;;
68653;SDS011;55636;51.108;13.622;2024-01-16T06:05:07;3.67;;;1.53;;
68653;SDS011;55636;51.108;13.622;2024-01-16T06:06:10;2.70;;;1.70;;
68653;SDS011;55636;51.108;13.622;2024-01-16T06:07:12;1.80;;;1.50;;
68653;SDS011;55636;51.108;13.622;2024-01-16T06:08:14;2.10;;;1.37;;
68653;SDS011;55636;51.108;13.622;2024-01-16T06:09:18;2.77;;;1.63;;
68653;SDS011;55636;51.108;13.622;2024-01-16T06:10:21;3.67;;;1.60;;
68653;SDS011;55636;51.108;13.622;2024-01-16T06:11:30;2.10;;;1.90;;
68653;SDS011;55636;51.108;13.622;2024-01-16T06:12:37;2.37;;;1.93;;
68653;SDS011;55636;51.108;13.622;2024-01-16T06:13:39;1.93;;;1.50;;
68653;SDS011;55636;51.108;13.622;2024-01-16T06:14:42;2.13;;;1.50;;